createdAt,value
2018-02-03T00:02:26.349Z,39.88
2018-02-03T00:04:54.506Z,39.85
2018-02-03T00:07:22.631Z,37.60
2018-02-03T00:09:50.794Z,45.53
2018-02-03T00:12:19.695Z,37.42
2018-02-03T00:14:47.854Z,40.60
2018-02-03T00:17:16.757Z,42.47
2018-02-03T00:19:44.918Z,40.95
2018-02-03T00:22:13.819Z,39.90
2018-02-03T00:24:41.973Z,44.95
2018-02-03T00:27:10.875Z,36.88
2018-02-03T00:29:39.035Z,41.33
2018-02-03T00:32:07.161Z,41.05
2018-02-03T00:34:35.320Z,38.20
2018-02-03T00:37:03.453Z,37.25
2018-02-03T00:39:31.612Z,40.10
2018-02-03T00:41:59.745Z,42.40
2018-02-03T00:44:27.900Z,41.05
2018-02-03T00:46:56.033Z,45.53
2018-02-03T00:49:24.185Z,44.53
2018-02-03T00:51:52.313Z,41.60
2018-02-03T00:54:20.479Z,43.42
2018-02-03T00:56:48.613Z,45.90
2018-02-03T00:59:16.765Z,42.33
2018-02-03T01:01:44.902Z,44.42
2018-02-03T01:04:13.823Z,50.55
2018-02-03T01:06:41.956Z,42.72
2018-02-03T01:09:10.879Z,46.15
2018-02-03T01:11:39.012Z,46.60
2018-02-03T01:14:07.168Z,44.47
2018-02-03T01:16:35.294Z,44.55
2018-02-03T01:19:03.456Z,44.63
2018-02-03T01:21:31.591Z,44.83
2018-02-03T01:23:59.750Z,56.22
2018-02-03T01:26:27.877Z,47.80
2018-02-03T01:28:56.043Z,48.13
2018-02-03T01:31:24.173Z,55.78
2018-02-03T01:33:52.347Z,58.50
2018-02-03T01:36:20.476Z,56.47
2018-02-03T01:38:48.648Z,54.17
2018-02-03T01:41:16.784Z,55.03
2018-02-03T01:43:44.913Z,48.38
2018-02-03T01:46:13.074Z,56.10
2018-02-03T01:48:41.200Z,52.05
2018-02-03T01:51:09.363Z,53.10
2018-02-03T01:53:37.488Z,58.10
2018-02-03T01:56:05.646Z,51.55
2018-02-03T01:58:33.777Z,52.62
2018-02-03T02:01:01.933Z,52.42
2018-02-03T02:03:30.068Z,52.92
2018-02-03T02:05:58.997Z,59.63
2018-02-03T02:08:27.122Z,56.25
2018-02-03T02:10:56.048Z,49.83
2018-02-03T02:13:24.180Z,57.03
2018-02-03T02:15:53.129Z,52.08
2018-02-03T02:18:21.260Z,50.10
2018-02-03T02:20:50.176Z,52.67
2018-02-03T02:23:18.321Z,62.58
2018-02-03T02:25:47.240Z,52.90
2018-02-03T02:28:15.388Z,51.28
2018-02-03T02:30:44.313Z,51.00
2018-02-03T02:33:12.445Z,55.38
2018-02-03T02:35:41.371Z,48.47
2018-02-03T02:38:09.518Z,54.90
2018-02-03T02:40:37.690Z,51.58
2018-02-03T02:43:05.826Z,60.10
2018-02-03T02:45:34.028Z,54.10
2018-02-03T02:48:02.931Z,59.80
2018-02-03T02:50:31.120Z,47.17
2018-02-03T02:52:59.269Z,55.92
2018-02-03T02:55:27.426Z,53.78
2018-02-03T02:57:55.561Z,54.20
2018-02-03T03:00:23.708Z,51.17
2018-02-03T03:02:51.842Z,48.70
2018-02-03T03:05:20.009Z,53.47
2018-02-03T03:07:48.136Z,56.97
2018-02-03T03:10:16.296Z,54.05
2018-02-03T03:12:44.425Z,56.83
2018-02-03T03:15:12.586Z,58.35
2018-02-03T03:17:40.720Z,52.75
2018-02-03T03:20:08.881Z,50.67
2018-02-03T03:22:37.773Z,52.65
2018-02-03T03:25:05.937Z,47.45
2018-02-03T03:27:34.829Z,49.85
2018-02-03T03:30:02.996Z,48.28
2018-02-03T03:32:31.893Z,40.05
2018-02-03T03:35:00.054Z,37.67
2018-02-03T03:37:28.186Z,38.10
2018-02-03T03:39:56.341Z,30.10
2018-02-03T03:42:24.476Z,27.85
2018-02-03T03:44:52.626Z,19.10
2018-02-03T03:47:20.751Z,8.65
2018-02-03T03:49:48.915Z,8.95
2018-02-03T03:52:17.799Z,6.80
2018-02-03T03:54:46.718Z,7.87
2018-02-03T03:57:14.838Z,7.82
2018-02-03T03:59:42.986Z,6.07
2018-02-03T04:02:11.109Z,9.75
2018-02-03T04:04:39.254Z,4.55
2018-02-03T04:07:07.377Z,4.28
2018-02-03T04:09:35.530Z,4.95
2018-02-03T04:12:04.424Z,6.55
2018-02-03T04:14:32.550Z,7.32
2018-02-03T04:17:00.701Z,10.27
2018-02-03T04:19:28.826Z,6.97
2018-02-03T04:21:56.983Z,7.80
2018-02-03T04:24:25.100Z,8.30
2018-02-03T04:26:53.254Z,10.30
2018-02-03T04:29:22.148Z,9.82
2018-02-03T04:31:50.295Z,8.10
2018-02-03T04:34:18.417Z,7.35
2018-02-03T04:36:46.587Z,8.38
2018-02-03T04:39:14.718Z,8.40
2018-02-03T04:41:42.861Z,8.65
2018-02-03T04:44:10.986Z,10.80
2018-02-03T04:46:39.909Z,9.55
2018-02-03T04:49:08.030Z,8.80
2018-02-03T04:51:36.180Z,8.10
2018-02-03T04:54:04.354Z,9.95
2018-02-03T04:56:32.482Z,8.50
2018-02-03T04:59:00.605Z,6.85
2018-02-03T05:01:28.752Z,7.53
2018-02-03T05:03:56.881Z,8.23
2018-02-03T05:06:25.790Z,5.53
2018-02-03T05:08:53.913Z,8.77
2018-02-03T05:11:22.061Z,8.27
2018-02-03T05:13:50.180Z,8.27
2018-02-03T05:16:18.336Z,8.15
2018-02-03T05:18:46.460Z,8.10
2018-02-03T05:21:14.604Z,8.48
2018-02-03T05:23:42.729Z,9.38
2018-02-03T05:26:10.877Z,9.27
2018-02-03T05:28:39.000Z,9.77
2018-02-03T05:31:07.149Z,9.27
2018-02-03T05:33:35.279Z,8.40
2018-02-03T05:36:03.420Z,8.00
2018-02-03T05:38:31.542Z,9.70
2018-02-03T05:40:59.697Z,9.32
2018-02-03T05:43:28.584Z,9.27
2018-02-03T05:45:56.732Z,9.85
2018-02-03T05:48:24.860Z,9.00
2018-02-03T05:50:53.015Z,7.95
2018-02-03T05:53:21.142Z,9.07
2018-02-03T05:55:49.296Z,9.75
2018-02-03T05:58:17.425Z,9.40
2018-02-03T06:00:46.365Z,10.00
2018-02-03T06:03:14.497Z,9.55
2018-02-03T06:05:43.413Z,10.30
2018-02-03T06:08:11.537Z,10.38
2018-02-03T06:10:39.692Z,11.75
2018-02-03T06:13:07.814Z,9.95
2018-02-03T06:15:35.978Z,12.88
2018-02-03T06:18:04.110Z,14.38
2018-02-03T06:20:32.260Z,9.15
2018-02-03T06:23:00.389Z,10.23
2018-02-03T06:25:28.545Z,12.27
2018-02-03T06:27:56.676Z,11.18
2018-02-03T06:30:24.839Z,14.30
2018-02-03T06:32:52.971Z,14.95
2018-02-03T06:35:21.133Z,10.93
2018-02-03T06:37:49.265Z,11.43
2018-02-03T06:40:17.398Z,11.60
2018-02-03T06:42:46.312Z,14.85
2018-02-03T06:45:14.452Z,12.40
2018-02-03T06:47:42.600Z,11.70
2018-02-03T06:50:10.722Z,11.12
2018-02-03T06:52:38.874Z,12.73
2018-02-03T06:55:07.005Z,14.05
2018-02-03T06:57:35.152Z,14.87
2018-02-03T07:00:03.288Z,16.00
2018-02-03T07:02:31.449Z,12.15
2018-02-03T07:04:59.576Z,15.93
2018-02-03T07:07:27.734Z,14.00
2018-02-03T07:09:56.626Z,15.02
2018-02-03T07:12:24.819Z,14.73
2018-02-03T07:14:52.954Z,13.77
2018-02-03T07:17:21.114Z,12.82
2018-02-03T07:19:49.249Z,13.38
2018-02-03T07:22:17.412Z,12.75
2018-02-03T07:24:45.544Z,11.75
2018-02-03T07:27:13.701Z,14.00
2018-02-03T07:29:41.840Z,14.45
2018-02-03T07:32:09.997Z,12.00
2018-02-03T07:34:38.129Z,14.68
2018-02-03T07:37:06.289Z,11.15
2018-02-03T07:39:34.425Z,11.77
2018-02-03T07:42:02.585Z,9.98
2018-02-03T07:44:30.712Z,10.30
2018-02-03T07:46:58.865Z,10.02
2018-02-03T07:49:26.997Z,10.60
2018-02-03T07:51:55.153Z,10.15
2018-02-03T07:54:23.277Z,12.40
2018-02-03T07:56:51.433Z,11.27
2018-02-03T07:59:19.561Z,12.48
2018-02-03T08:01:47.713Z,10.80
2018-02-03T08:04:15.849Z,10.43
2018-02-03T08:06:44.000Z,10.35
2018-02-03T08:09:12.125Z,12.20
2018-02-03T08:11:40.355Z,10.60
2018-02-03T08:14:09.249Z,11.35
2018-02-03T08:16:37.402Z,9.75
2018-02-03T08:19:05.527Z,9.52
2018-02-03T08:21:33.682Z,12.18
2018-02-03T08:24:01.825Z,10.18
2018-02-03T08:26:29.973Z,14.05
2018-02-03T08:28:58.105Z,9.50
2018-02-03T08:31:26.264Z,8.85
2018-02-03T08:33:54.395Z,8.70
2018-02-03T08:36:22.542Z,10.52
2018-02-03T08:38:50.676Z,8.13
2018-02-03T08:41:19.590Z,5.50
2018-02-03T08:43:47.713Z,6.55
2018-02-03T08:46:15.871Z,6.53
2018-02-03T08:48:43.987Z,5.82
2018-02-03T08:51:12.138Z,6.85
2018-02-03T08:53:40.268Z,7.35
2018-02-03T08:56:08.433Z,7.68
2018-02-03T08:58:36.567Z,6.68
2018-02-03T09:01:04.684Z,6.78
2018-02-03T09:03:32.837Z,8.65
2018-02-03T09:06:00.966Z,8.85
2018-02-03T09:08:29.109Z,9.65
2018-02-03T09:10:57.228Z,7.45
2018-02-03T09:13:25.378Z,8.73
2018-02-03T09:15:53.493Z,7.10
2018-02-03T09:18:21.641Z,11.48
2018-02-03T09:20:49.779Z,7.62
2018-02-03T09:23:17.931Z,8.60
2018-02-03T09:25:46.048Z,7.05
2018-02-03T09:28:14.193Z,7.18
2018-02-03T09:30:42.317Z,7.60
2018-02-03T09:33:11.229Z,7.62
2018-02-03T09:35:39.353Z,7.28
2018-02-03T09:38:07.507Z,7.30
2018-02-03T09:40:35.634Z,8.30
2018-02-03T09:43:03.781Z,8.73
2018-02-03T09:45:31.905Z,8.75
2018-02-03T09:48:00.102Z,8.45
2018-02-03T09:50:28.233Z,7.43
2018-02-03T09:52:56.416Z,8.57
2018-02-03T09:55:24.548Z,8.00
2018-02-03T09:57:52.694Z,8.05
2018-02-03T10:00:20.944Z,6.45
2018-02-03T10:02:49.116Z,7.07
2018-02-03T10:05:17.284Z,11.12
2018-02-03T10:07:45.791Z,6.05
2018-02-03T10:10:13.937Z,7.05
2018-02-03T10:12:42.152Z,5.32
2018-02-03T10:15:10.309Z,6.95
2018-02-03T10:17:38.503Z,6.53
2018-02-03T10:20:06.659Z,5.32
2018-02-03T10:22:34.857Z,7.62
2018-02-03T10:25:03.044Z,5.85
2018-02-03T10:27:31.287Z,6.00
2018-02-03T10:29:59.471Z,7.75
2018-02-03T10:32:27.638Z,5.20
2018-02-03T10:34:55.791Z,5.03
2018-02-03T10:37:23.967Z,5.25
2018-02-03T10:39:52.120Z,6.82
2018-02-03T10:42:20.361Z,6.68
2018-02-03T10:44:49.287Z,5.05
2018-02-03T10:47:17.446Z,4.15
2018-02-03T10:49:46.336Z,4.78
2018-02-03T10:52:14.477Z,4.18
2018-02-03T10:54:42.598Z,4.07
2018-02-03T10:57:11.514Z,4.75
2018-02-03T10:59:39.637Z,5.07
2018-02-03T11:02:07.793Z,4.62
2018-02-03T11:04:35.921Z,4.75
2018-02-03T11:07:04.068Z,4.22
2018-02-03T11:09:32.192Z,5.20
2018-02-03T11:12:00.348Z,4.65
2018-02-03T11:14:28.507Z,3.75
2018-02-03T11:16:56.666Z,3.92
2018-02-03T11:19:24.796Z,4.30
2018-02-03T11:21:52.947Z,7.72
2018-02-03T11:24:21.073Z,6.70
2018-02-03T11:26:49.208Z,4.62
2018-02-03T11:29:17.357Z,3.75
2018-02-03T11:31:45.486Z,3.10
2018-02-03T11:34:13.656Z,7.82
2018-02-03T11:36:41.849Z,3.55
2018-02-03T11:39:09.997Z,4.57
2018-02-03T11:41:38.135Z,4.55
2018-02-03T11:44:06.295Z,3.10
2018-02-03T11:46:34.414Z,4.07
2018-02-03T11:49:02.588Z,3.75
2018-02-03T11:51:30.709Z,4.10
2018-02-03T11:53:58.910Z,3.25
2018-02-03T11:56:27.046Z,4.45
2018-02-03T11:58:55.224Z,4.53
2018-02-03T12:01:23.424Z,3.80
2018-02-03T12:03:51.629Z,3.37
2018-02-03T12:06:19.827Z,3.58
2018-02-03T12:08:48.000Z,3.75
2018-02-03T12:11:16.158Z,3.90
2018-02-03T12:13:44.345Z,3.45
2018-02-03T12:16:12.562Z,4.07
2018-02-03T12:18:40.774Z,3.25
2018-02-03T12:21:08.897Z,3.00
2018-02-03T12:23:37.101Z,3.67
2018-02-03T12:26:05.243Z,3.87
2018-02-03T12:28:33.422Z,4.97
2018-02-03T12:31:02.453Z,5.65
2018-02-03T12:33:30.617Z,4.80
2018-02-03T12:35:58.778Z,4.18
2018-02-03T12:38:26.940Z,5.18
2018-02-03T12:40:55.077Z,4.45
2018-02-03T12:43:30.568Z,4.40
2018-02-03T12:45:58.794Z,4.20
2018-02-03T12:48:26.997Z,3.70
2018-02-03T12:50:55.124Z,4.03
2018-02-03T12:53:23.303Z,4.00
2018-02-03T12:55:51.430Z,5.25
2018-02-03T12:58:19.662Z,5.97
2018-02-03T13:00:47.785Z,3.92
2018-02-03T13:03:15.935Z,3.97
2018-02-03T13:05:44.168Z,4.47
2018-02-03T13:08:12.337Z,3.67
2018-02-03T13:10:40.465Z,3.65
2018-02-03T13:13:08.623Z,4.22
2018-02-03T13:15:36.741Z,5.20
2018-02-03T13:18:04.898Z,4.80
2018-02-03T13:20:33.029Z,5.62
2018-02-03T13:23:01.169Z,4.57
2018-02-03T13:25:29.297Z,9.05
2018-02-03T13:27:57.453Z,5.45
2018-02-03T13:30:26.341Z,6.70
2018-02-03T13:32:54.493Z,6.00
2018-02-03T13:35:22.613Z,5.93
2018-02-03T13:37:50.767Z,4.80
2018-02-03T13:40:18.892Z,6.78
2018-02-03T13:42:47.048Z,6.15
2018-02-03T13:45:15.178Z,6.28
2018-02-03T13:47:44.158Z,5.20
2018-02-03T13:50:12.302Z,5.85
2018-02-03T13:52:40.533Z,5.75
2018-02-03T13:55:08.699Z,6.95
2018-02-03T13:57:37.660Z,6.05
2018-02-03T14:00:05.794Z,5.32
2018-02-03T14:02:33.917Z,7.72
2018-02-03T14:05:02.074Z,6.65
2018-02-03T14:07:30.196Z,5.80
2018-02-03T14:09:58.345Z,5.60
2018-02-03T14:12:26.456Z,6.20
2018-02-03T14:14:54.605Z,7.07
2018-02-03T14:17:22.726Z,6.82
2018-02-03T14:19:50.874Z,7.40
2018-02-03T14:22:19.027Z,7.87
2018-02-03T14:24:59.103Z,6.90
2018-02-03T14:27:27.220Z,6.18
2018-02-03T14:29:55.373Z,6.30
2018-02-03T14:32:23.497Z,7.28
2018-02-03T14:34:51.652Z,6.93
2018-02-03T14:37:19.832Z,6.68
2018-02-03T14:39:47.952Z,6.80
2018-02-03T14:42:16.087Z,6.80
2018-02-03T14:44:44.243Z,6.15
2018-02-03T14:47:12.364Z,6.40
2018-02-03T14:49:40.517Z,6.57
2018-02-03T14:52:08.647Z,6.53
2018-02-03T14:54:36.821Z,7.53
2018-02-03T14:57:04.941Z,6.75
2018-02-03T14:59:33.130Z,6.45
2018-02-03T15:02:01.259Z,7.65
2018-02-03T15:04:29.412Z,7.70
2018-02-03T15:06:57.609Z,8.38
2018-02-03T15:09:25.777Z,7.35
2018-02-03T15:11:53.906Z,7.65
2018-02-03T15:14:22.059Z,6.10
2018-02-03T15:16:50.185Z,6.60
2018-02-03T15:19:18.334Z,6.43
2018-02-03T15:21:46.475Z,6.47
2018-02-03T15:24:14.651Z,6.65
2018-02-03T15:26:42.827Z,7.45
2018-02-03T15:29:11.063Z,5.90
2018-02-03T15:31:39.229Z,7.22
2018-02-03T15:34:07.437Z,6.75
2018-02-03T15:36:35.613Z,6.57
2018-02-03T15:39:03.916Z,8.13
2018-02-03T15:41:32.158Z,8.07
2018-02-03T15:44:00.313Z,6.85
2018-02-03T15:46:28.441Z,5.90
2018-02-03T15:48:56.704Z,5.97
2018-02-03T15:51:24.839Z,11.75
2018-02-03T15:53:53.025Z,6.12
2018-02-03T15:56:21.952Z,6.87
2018-02-03T15:58:50.136Z,7.55
2018-02-03T16:01:18.267Z,5.45
2018-02-03T16:03:46.417Z,7.45
2018-02-03T16:06:14.562Z,6.60
2018-02-03T16:08:42.704Z,7.28
2018-02-03T16:11:10.833Z,6.85
2018-02-03T16:13:38.987Z,6.97
2018-02-03T16:16:07.119Z,8.18
2018-02-03T16:18:35.347Z,6.45
2018-02-03T16:21:03.465Z,7.90
2018-02-03T16:23:31.629Z,6.82
2018-02-03T16:25:59.759Z,7.95
2018-02-03T16:28:27.942Z,6.30
2018-02-03T16:30:56.103Z,7.68
2018-02-03T16:33:24.253Z,10.85
2018-02-03T16:35:53.147Z,6.60
2018-02-03T16:38:21.354Z,10.23
2018-02-03T16:40:49.506Z,7.93
2018-02-03T16:43:17.649Z,7.62
2018-02-03T16:45:45.797Z,8.35
2018-02-03T16:48:13.993Z,8.50
2018-02-03T16:50:42.265Z,6.35
2018-02-03T16:53:10.463Z,5.75
2018-02-03T16:55:38.687Z,6.15
2018-02-03T16:58:06.851Z,6.00
2018-02-03T17:00:35.001Z,6.65
2018-02-03T17:03:03.172Z,5.82
2018-02-03T17:05:31.694Z,7.03
2018-02-03T17:08:00.593Z,7.37
2018-02-03T17:10:29.526Z,6.45
2018-02-03T17:12:57.640Z,6.82
2018-02-03T17:15:25.807Z,6.00
2018-02-03T17:17:53.982Z,6.25
2018-02-03T17:20:22.133Z,7.20
2018-02-03T17:22:50.330Z,6.28
2018-02-03T17:25:18.484Z,6.57
2018-02-03T17:27:46.617Z,10.98
2018-02-03T17:30:14.767Z,6.15
2018-02-03T17:32:42.888Z,6.22
2018-02-03T17:35:11.045Z,6.30
2018-02-03T17:37:44.876Z,6.68
2018-02-03T17:40:13.050Z,5.03
2018-02-03T17:42:41.212Z,6.07
2018-02-03T17:45:15.241Z,5.00
2018-02-03T17:47:44.257Z,6.43
2018-02-03T17:50:12.409Z,8.23
2018-02-03T17:52:40.532Z,8.02
2018-02-03T17:55:08.694Z,7.70
2018-02-03T17:57:42.373Z,6.87
2018-02-03T18:00:10.557Z,7.22
2018-02-03T18:02:38.880Z,7.78
2018-02-03T18:05:07.041Z,7.90
2018-02-03T18:07:35.165Z,7.60
2018-02-03T18:10:03.346Z,7.10
2018-02-03T18:12:31.468Z,7.55
2018-02-03T18:14:59.620Z,6.00
2018-02-03T18:17:27.761Z,6.15
2018-02-03T18:19:55.932Z,6.05
2018-02-03T18:22:24.118Z,6.07
2018-02-03T18:24:52.274Z,6.55
2018-02-03T18:27:20.401Z,6.20
2018-02-03T18:29:48.557Z,7.57
2018-02-03T18:32:17.449Z,8.98
2018-02-03T18:34:45.612Z,7.82
2018-02-03T18:37:14.536Z,8.27
2018-02-03T18:39:42.689Z,7.22
2018-02-03T18:42:11.607Z,6.75
2018-02-03T18:44:39.773Z,8.02
2018-02-03T18:47:07.909Z,6.10
2018-02-03T18:49:36.083Z,7.75
2018-02-03T18:52:04.986Z,7.00
2018-02-03T18:54:33.916Z,8.60
2018-02-03T18:57:02.067Z,8.25
2018-02-03T18:59:30.453Z,10.25
2018-02-03T19:01:58.601Z,12.02
2018-02-03T19:04:26.855Z,8.05
2018-02-03T19:06:55.006Z,8.43
2018-02-03T19:09:23.189Z,10.73
2018-02-03T19:11:51.326Z,9.40
2018-02-03T19:14:19.506Z,7.10
2018-02-03T19:16:55.418Z,8.18
2018-02-03T19:19:24.351Z,7.15
2018-02-03T19:21:52.486Z,8.48
2018-02-03T19:24:21.383Z,8.45
2018-02-03T19:26:49.533Z,7.37
2018-02-03T19:29:17.660Z,7.55
2018-02-03T19:31:45.810Z,8.25
2018-02-03T19:34:13.955Z,8.13
2018-02-03T19:36:42.108Z,6.37
2018-02-03T19:39:10.254Z,6.15
2018-02-03T19:41:38.415Z,6.87
2018-02-03T19:44:06.542Z,8.38
2018-02-03T19:46:34.701Z,7.10
2018-02-03T19:49:02.825Z,9.07
2018-02-03T19:51:30.976Z,8.32
2018-02-03T19:53:59.105Z,9.15
2018-02-03T19:56:27.266Z,7.50
2018-02-03T19:58:55.459Z,8.50
2018-02-03T20:01:23.643Z,9.45
2018-02-03T20:03:51.772Z,8.57
2018-02-03T20:06:19.963Z,8.40
2018-02-03T20:08:48.130Z,7.85
2018-02-03T20:11:16.312Z,10.00
2018-02-03T20:13:44.441Z,9.07
2018-02-03T20:16:13.358Z,8.93
2018-02-03T20:18:41.494Z,10.07
2018-02-03T20:21:09.652Z,9.10
2018-02-03T20:23:37.786Z,10.82
2018-02-03T20:26:05.942Z,7.07
2018-02-03T20:28:34.073Z,9.35
2018-02-03T20:31:02.348Z,8.98
2018-02-03T20:33:30.489Z,11.15
2018-02-03T20:35:58.637Z,9.60
2018-02-03T20:38:26.773Z,8.63
2018-02-03T20:40:55.052Z,7.18
2018-02-03T20:43:23.179Z,8.68
2018-02-03T20:45:51.346Z,9.48
2018-02-03T20:48:19.472Z,9.38
2018-02-03T20:50:47.650Z,11.60
2018-02-03T20:53:15.794Z,12.10
2018-02-03T20:55:43.953Z,10.13
2018-02-03T20:58:12.076Z,9.75
2018-02-03T21:00:40.270Z,10.38
2018-02-03T21:03:09.165Z,10.93
2018-02-03T21:05:37.327Z,10.60
2018-02-03T21:08:06.225Z,9.68
2018-02-03T21:10:34.420Z,11.25
2018-02-03T21:13:02.561Z,9.88
2018-02-03T21:15:30.727Z,10.60
2018-02-03T21:17:58.893Z,11.82
2018-02-03T21:20:27.066Z,12.43
2018-02-03T21:22:55.233Z,11.35
2018-02-03T21:25:23.471Z,13.30
2018-02-03T21:27:51.611Z,11.05
2018-02-03T21:30:19.779Z,9.20
2018-02-03T21:32:47.913Z,11.77
2018-02-03T21:35:16.077Z,9.57
2018-02-03T21:37:44.204Z,9.43
2018-02-03T21:40:12.361Z,8.68
2018-02-03T21:42:40.489Z,13.20
2018-02-03T21:45:08.627Z,11.57
2018-02-03T21:47:36.816Z,10.20
2018-02-03T21:50:04.949Z,12.18
2018-02-03T21:52:33.113Z,10.95
2018-02-03T21:55:01.246Z,10.95
2018-02-03T21:57:29.402Z,13.68
2018-02-03T21:59:57.528Z,12.45
2018-02-03T22:02:25.688Z,12.25
2018-02-03T22:04:53.824Z,11.80
2018-02-03T22:07:22.386Z,11.52
2018-02-03T22:09:50.513Z,9.25
2018-02-03T22:12:18.675Z,10.93
2018-02-03T22:14:46.807Z,13.73
2018-02-03T22:17:14.960Z,11.43
2018-02-03T22:19:43.089Z,11.38
2018-02-03T22:22:11.314Z,11.43
2018-02-03T22:24:39.450Z,11.55
2018-02-03T22:27:07.614Z,15.38
2018-02-03T22:29:35.749Z,13.00
2018-02-03T22:32:04.672Z,12.18
2018-02-03T22:34:32.801Z,10.85
2018-02-03T22:37:01.724Z,11.57
2018-02-03T22:39:29.853Z,10.95
2018-02-03T22:41:58.004Z,12.10
2018-02-03T22:44:26.154Z,12.57
2018-02-03T22:46:54.310Z,12.88
2018-02-03T22:49:22.448Z,11.18
2018-02-03T22:51:50.611Z,13.13
2018-02-03T22:54:18.771Z,12.70
2018-02-03T22:56:46.938Z,12.70
2018-02-03T22:59:15.077Z,11.65
2018-02-03T23:01:43.246Z,14.82
2018-02-03T23:04:11.381Z,16.02
2018-02-03T23:06:39.546Z,11.65
2018-02-03T23:09:07.681Z,12.05
2018-02-03T23:11:35.857Z,13.05
2018-02-03T23:14:03.993Z,13.00
2018-02-03T23:16:32.153Z,14.90
2018-02-03T23:19:00.298Z,14.00
2018-02-03T23:21:28.468Z,14.90
2018-02-03T23:23:56.597Z,13.40
2018-02-03T23:26:24.778Z,12.82
2018-02-03T23:28:52.918Z,11.60
2018-02-03T23:31:21.085Z,12.90
2018-02-03T23:33:49.221Z,12.00
2018-02-03T23:36:17.394Z,13.23
2018-02-03T23:38:45.535Z,11.07
2018-02-03T23:41:13.688Z,13.98
2018-02-03T23:43:41.832Z,12.07
2018-02-03T23:46:09.994Z,11.35
2018-02-03T23:48:38.124Z,12.43
2018-02-03T23:51:06.304Z,14.10
2018-02-03T23:53:34.446Z,11.20
2018-02-03T23:56:02.618Z,11.88
2018-02-03T23:58:30.757Z,12.40
